sensor_id;sensor_type;location;lat;lon;timestamp;pressure;altitude;pressure_sealevel;temperature;humidity
7052;BME280;3567;52.444;13.556;2023-10-08T00:01:21;101402.44;;;10.84;100.00
7052;BME280;3567;52.444;13.556;2023-10-08T00:03:47;101407.59;;;10.85;100.00
7052;BME280;3567;52.444;13.556;2023-10-08T00:06:20;101407.41;;;10.87;100.00
7052;BME280;3567;52.444;13.556;2023-10-08T00:08:47;101425.53;;;10.85;100.00
7052;BME280;3567;52.444;13.556;2023-10-08T00:11:13;101426.78;;;10.82;100.00
7052;BME280;3567;52.444;13.556;2023-10-08T00:13:41;101438.94;;;10.85;100.00
7052;BME280;3567;52.444;13.556;2023-10-08T00:16:11;101436.25;;;10.85;100.00
7052;BME280;3567;52.444;13.556;2023-10-08T00:18:41;101413.56;;;10.87;100.00
7052;BME280;3567;52.444;13.556;2023-10-08T00:21:13;101425.94;;;10.88;100.00
7052;BME280;3567;52.444;13.556;2023-10-08T00:23:39;101421.63;;;10.87;100.00
7052;BME280;3567;52.444;13.556;2023-10-08T00:26:08;101420.16;;;10.85;100.00
7052;BME280;3567;52.444;13.556;2023-10-08T00:28:34;101422.63;;;10.86;100.00
7052;BME280;3567;52.444;13.556;2023-10-08T00:31:03;101437.47;;;10.89;100.00
7052;BME280;3567;52.444;13.556;2023-10-08T00:33:38;101439.72;;;10.92;100.00
7052;BME280;3567;52.444;13.556;2023-10-08T00:36:10;101433.34;;;10.93;100.00
7052;BME280;3567;52.444;13.556;2023-10-08T00:38:48;101439.06;;;10.96;100.00
7052;BME280;3567;52.444;13.556;2023-10-08T00:41:24;101440.13;;;10.95;100.00
7052;BME280;3567;52.444;13.556;2023-10-08T00:43:54;101442.38;;;10.98;100.00
7052;BME280;3567;52.444;13.556;2023-10-08T00:46:22;101444.03;;;10.99;100.00
7052;BME280;3567;52.444;13.556;2023-10-08T00:48:53;101452.66;;;11.01;100.00
7052;BME280;3567;52.444;13.556;2023-10-08T00:51:21;101451.03;;;11.00;100.00
7052;BME280;3567;52.444;13.556;2023-10-08T00:53:50;101457.44;;;10.99;100.00
7052;BME280;3567;52.444;13.556;2023-10-08T00:56:18;101456.16;;;11.02;100.00
7052;BME280;3567;52.444;13.556;2023-10-08T00:58:45;101459.69;;;11.02;100.00
7052;BME280;3567;52.444;13.556;2023-10-08T01:01:19;101455.16;;;11.03;100.00
7052;BME280;3567;52.444;13.556;2023-10-08T01:03:47;101472.88;;;11.04;100.00
7052;BME280;3567;52.444;13.556;2023-10-08T01:06:15;101472.88;;;11.04;100.00
7052;BME280;3567;52.444;13.556;2023-10-08T01:08:44;101472.06;;;11.04;100.00
7052;BME280;3567;52.444;13.556;2023-10-08T01:11:23;101477.41;;;11.04;100.00
7052;BME280;3567;52.444;13.556;2023-10-08T01:14:08;101469.78;;;11.00;100.00
7052;BME280;3567;52.444;13.556;2023-10-08T01:16:34;101465.47;;;10.99;100.00
7052;BME280;3567;52.444;13.556;2023-10-08T01:19:00;101471.66;;;11.00;100.00
7052;BME280;3567;52.444;13.556;2023-10-08T01:21:28;101470.59;;;11.01;100.00
7052;BME280;3567;52.444;13.556;2023-10-08T01:24:02;101479.91;;;10.98;100.00
7052;BME280;3567;52.444;13.556;2023-10-08T01:26:31;101477.81;;;11.00;100.00
7052;BME280;3567;52.444;13.556;2023-10-08T01:28:58;101491.22;;;11.00;100.00
7052;BME280;3567;52.444;13.556;2023-10-08T01:31:28;101482.59;;;10.98;100.00
7052;BME280;3567;52.444;13.556;2023-10-08T01:33:54;101489.00;;;10.97;100.00
7052;BME280;3567;52.444;13.556;2023-10-08T01:36:23;101487.53;;;10.95;100.00
7052;BME280;3567;52.444;13.556;2023-10-08T01:38:49;101491.50;;;10.92;100.00
7052;BME280;3567;52.444;13.556;2023-10-08T01:41:14;101490.84;;;10.90;100.00
7052;BME280;3567;52.444;13.556;2023-10-08T01:43:54;101502.63;;;10.89;100.00
7052;BME280;3567;52.444;13.556;2023-10-08T01:46:19;101496.44;;;10.89;100.00
7052;BME280;3567;52.444;13.556;2023-10-08T01:48:47;101499.34;;;10.87;100.00
7052;BME280;3567;52.444;13.556;2023-10-08T01:51:18;101503.03;;;10.86;100.00
7052;BME280;3567;52.444;13.556;2023-10-08T01:54:02;101504.69;;;10.87;100.00
7052;BME280;3567;52.444;13.556;2023-10-08T01:56:29;101514.19;;;10.83;100.00
7052;BME280;3567;52.444;13.556;2023-10-08T01:58:55;101509.25;;;10.80;100.00
7052;BME280;3567;52.444;13.556;2023-10-08T02:01:21;101531.50;;;10.81;100.00
7052;BME280;3567;52.444;13.556;2023-10-08T02:03:46;101528.00;;;10.80;100.00
7052;BME280;3567;52.444;13.556;2023-10-08T02:06:12;101537.91;;;10.80;100.00
7052;BME280;3567;52.444;13.556;2023-10-08T02:08:38;101529.03;;;10.79;100.00
7052;BME280;3567;52.444;13.556;2023-10-08T02:11:04;101525.31;;;10.80;100.00
7052;BME280;3567;52.444;13.556;2023-10-08T02:13:29;101532.31;;;10.81;100.00
7052;BME280;3567;52.444;13.556;2023-10-08T02:15:55;101527.41;;;10.78;100.00
7052;BME280;3567;52.444;13.556;2023-10-08T02:18:21;101526.81;;;10.76;100.00
7052;BME280;3567;52.444;13.556;2023-10-08T02:20:48;101533.16;;;10.75;100.00
7052;BME280;3567;52.444;13.556;2023-10-08T02:23:14;101531.75;;;10.72;100.00
7052;BME280;3567;52.444;13.556;2023-10-08T02:25:40;101562.25;;;10.71;100.00
7052;BME280;3567;52.444;13.556;2023-10-08T02:28:06;101560.41;;;10.72;100.00
7052;BME280;3567;52.444;13.556;2023-10-08T02:30:37;101560.41;;;10.72;100.00
7052;BME280;3567;52.444;13.556;2023-10-08T02:33:07;101573.81;;;10.72;100.00
7052;BME280;3567;52.444;13.556;2023-10-08T02:35:40;101582.88;;;10.71;100.00
7052;BME280;3567;52.444;13.556;2023-10-08T02:38:08;101606.78;;;10.72;100.00
7052;BME280;3567;52.444;13.556;2023-10-08T02:40:37;101602.25;;;10.73;100.00
7052;BME280;3567;52.444;13.556;2023-10-08T02:43:02;101603.88;;;10.74;100.00
7052;BME280;3567;52.444;13.556;2023-10-08T02:45:31;101596.25;;;10.78;100.00
7052;BME280;3567;52.444;13.556;2023-10-08T02:47:56;101588.81;;;10.80;100.00
7052;BME280;3567;52.444;13.556;2023-10-08T02:50:22;101602.44;;;10.78;100.00
7052;BME280;3567;52.444;13.556;2023-10-08T02:52:51;101597.91;;;10.79;100.00
7052;BME280;3567;52.444;13.556;2023-10-08T02:55:19;101597.69;;;10.80;100.00
7052;BME280;3567;52.444;13.556;2023-10-08T02:58:02;101589.22;;;10.83;100.00
7052;BME280;3567;52.444;13.556;2023-10-08T03:00:28;101598.91;;;10.84;100.00
7052;BME280;3567;52.444;13.556;2023-10-08T03:03:01;101602.84;;;10.82;100.00
7052;BME280;3567;52.444;13.556;2023-10-08T03:05:34;101598.31;;;10.82;100.00
7052;BME280;3567;52.444;13.556;2023-10-08T03:08:04;101606.13;;;10.84;100.00
7052;BME280;3567;52.444;13.556;2023-10-08T03:10:37;101592.13;;;10.82;100.00
7052;BME280;3567;52.444;13.556;2023-10-08T03:13:03;101589.22;;;10.83;100.00
7052;BME280;3567;52.444;13.556;2023-10-08T03:15:35;101614.19;;;10.84;100.00
7052;BME280;3567;52.444;13.556;2023-10-08T03:18:05;101594.81;;;10.82;100.00
7052;BME280;3567;52.444;13.556;2023-10-08T03:20:36;101597.88;;;10.85;100.00
7052;BME280;3567;52.444;13.556;2023-10-08T03:23:09;101606.13;;;10.84;100.00
7052;BME280;3567;52.444;13.556;2023-10-08T03:25:55;101612.53;;;10.83;100.00
7052;BME280;3567;52.444;13.556;2023-10-08T03:28:36;101607.38;;;10.81;100.00
7052;BME280;3567;52.444;13.556;2023-10-08T03:31:03;101615.41;;;10.81;100.00
7052;BME280;3567;52.444;13.556;2023-10-08T03:33:34;101605.13;;;10.78;100.00
7052;BME280;3567;52.444;13.556;2023-10-08T03:36:09;101610.88;;;10.75;100.00
7052;BME280;3567;52.444;13.556;2023-10-08T03:38:39;101632.31;;;10.75;100.00
7052;BME280;3567;52.444;13.556;2023-10-08T03:41:15;101649.44;;;10.74;100.00
7052;BME280;3567;52.444;13.556;2023-10-08T03:43:45;101649.66;;;10.72;100.00
7052;BME280;3567;52.444;13.556;2023-10-08T03:46:30;101640.78;;;10.72;100.00
7052;BME280;3567;52.444;13.556;2023-10-08T03:48:57;101641.19;;;10.69;100.00
7052;BME280;3567;52.444;13.556;2023-10-08T03:51:23;101668.00;;;10.69;100.00
7052;BME280;3567;52.444;13.556;2023-10-08T03:53:52;101673.78;;;10.66;100.00
7052;BME280;3567;52.444;13.556;2023-10-08T03:56:26;101677.69;;;10.63;100.00
7052;BME280;3567;52.444;13.556;2023-10-08T03:58:54;101683.84;;;10.64;100.00
7052;BME280;3567;52.444;13.556;2023-10-08T04:01:21;101689.22;;;10.64;100.00
7052;BME280;3567;52.444;13.556;2023-10-08T04:03:47;101695.81;;;10.61;100.00
7052;BME280;3567;52.444;13.556;2023-10-08T04:06:21;101686.97;;;10.61;100.00
7052;BME280;3567;52.444;13.556;2023-10-08T04:09:00;101698.69;;;10.60;100.00
7052;BME280;3567;52.444;13.556;2023-10-08T04:11:38;101700.38;;;10.61;100.00
7052;BME280;3567;52.444;13.556;2023-10-08T04:14:29;101704.03;;;10.60;100.00
7052;BME280;3567;52.444;13.556;2023-10-08T04:16:54;101699.72;;;10.59;100.00
7052;BME280;3567;52.444;13.556;2023-10-08T04:19:21;101693.16;;;10.55;100.00
7052;BME280;3567;52.444;13.556;2023-10-08T04:21:54;101693.53;;;10.52;100.00
7052;BME280;3567;52.444;13.556;2023-10-08T04:24:27;101720.72;;;10.48;100.00
7052;BME280;3567;52.444;13.556;2023-10-08T04:27:02;101718.88;;;10.42;100.00
7052;BME280;3567;52.444;13.556;2023-10-08T04:29:31;101739.25;;;10.43;100.00
7052;BME280;3567;52.444;13.556;2023-10-08T04:31:59;101741.34;;;10.41;100.00
7052;BME280;3567;52.444;13.556;2023-10-08T04:34:33;101742.38;;;10.40;100.00
7052;BME280;3567;52.444;13.556;2023-10-08T04:36:58;101754.13;;;10.39;100.00
7052;BME280;3567;52.444;13.556;2023-10-08T04:39:27;101756.97;;;10.38;100.00
7052;BME280;3567;52.444;13.556;2023-10-08T04:42:02;101762.75;;;10.35;100.00
7052;BME280;3567;52.444;13.556;2023-10-08T04:44:35;101765.59;;;10.33;100.00
7052;BME280;3567;52.444;13.556;2023-10-08T04:47:03;101764.78;;;10.33;100.00
7052;BME280;3567;52.444;13.556;2023-10-08T04:49:33;101760.25;;;10.33;100.00
7052;BME280;3567;52.444;13.556;2023-10-08T04:52:00;101765.00;;;10.31;100.00
7052;BME280;3567;52.444;13.556;2023-10-08T04:54:27;101767.06;;;10.29;100.00
7052;BME280;3567;52.444;13.556;2023-10-08T04:57:00;101765.16;;;10.23;100.00
7052;BME280;3567;52.444;13.556;2023-10-08T04:59:29;101766.38;;;10.20;100.00
7052;BME280;3567;52.444;13.556;2023-10-08T05:02:03;101767.78;;;10.16;100.00
7052;BME280;3567;52.444;13.556;2023-10-08T05:04:45;101771.28;;;10.10;100.00
7052;BME280;3567;52.444;13.556;2023-10-08T05:07:25;101780.31;;;10.03;100.00
7052;BME280;3567;52.444;13.556;2023-10-08T05:10:09;101779.44;;;9.95;100.00
7052;BME280;3567;52.444;13.556;2023-10-08T05:12:34;101796.28;;;9.89;100.00
7052;BME280;3567;52.444;13.556;2023-10-08T05:15:04;101812.13;;;9.84;100.00
7052;BME280;3567;52.444;13.556;2023-10-08T05:17:46;101809.03;;;9.81;100.00
7052;BME280;3567;52.444;13.556;2023-10-08T05:20:18;101807.97;;;9.75;100.00
7052;BME280;3567;52.444;13.556;2023-10-08T05:23:07;101806.91;;;9.69;100.00
7052;BME280;3567;52.444;13.556;2023-10-08T05:26:02;101806.25;;;9.67;100.00
7052;BME280;3567;52.444;13.556;2023-10-08T05:28:31;101812.84;;;9.65;100.00
7052;BME280;3567;52.444;13.556;2023-10-08T05:31:11;101830.31;;;9.61;100.00
7052;BME280;3567;52.444;13.556;2023-10-08T05:33:42;101837.50;;;9.60;100.00
7052;BME280;3567;52.444;13.556;2023-10-08T05:36:26;101845.28;;;9.55;100.00
7052;BME280;3567;52.444;13.556;2023-10-08T05:39:16;101842.19;;;9.58;100.00
7052;BME280;3567;52.444;13.556;2023-10-08T05:42:01;101849.22;;;9.59;100.00
7052;BME280;3567;52.444;13.556;2023-10-08T05:44:45;101847.63;;;9.65;100.00
7052;BME280;3567;52.444;13.556;2023-10-08T05:47:16;101853.38;;;9.68;100.00
7052;BME280;3567;52.444;13.556;2023-10-08T05:49:41;101868.25;;;9.71;100.00
7052;BME280;3567;52.444;13.556;2023-10-08T05:52:20;101863.50;;;9.73;100.00
7052;BME280;3567;52.444;13.556;2023-10-08T05:55:06;101872.56;;;9.72;100.00
7052;BME280;3567;52.444;13.556;2023-10-08T05:57:47;101862.09;;;9.77;100.00
7052;BME280;3567;52.444;13.556;2023-10-08T06:00:18;101863.75;;;9.78;100.00
7052;BME280;3567;52.444;13.556;2023-10-08T06:03:03;101869.97;;;9.85;100.00
7052;BME280;3567;52.444;13.556;2023-10-08T06:05:35;101892.63;;;9.89;100.00
7052;BME280;3567;52.444;13.556;2023-10-08T06:08:08;101897.22;;;9.95;100.00
7052;BME280;3567;52.444;13.556;2023-10-08T06:10:39;101898.47;;;10.00;100.00
7052;BME280;3567;52.444;13.556;2023-10-08T06:13:09;101910.44;;;10.04;100.00
7052;BME280;3567;52.444;13.556;2023-10-08T06:15:39;101922.44;;;10.08;100.00
7052;BME280;3567;52.444;13.556;2023-10-08T06:18:15;101930.13;;;10.17;100.00
7052;BME280;3567;52.444;13.556;2023-10-08T06:20:42;101944.84;;;10.28;100.00
7052;BME280;3567;52.444;13.556;2023-10-08T06:23:17;101945.34;;;10.45;100.00
7052;BME280;3567;52.444;13.556;2023-10-08T06:25:44;101953.66;;;10.63;100.00
7052;BME280;3567;52.444;13.556;2023-10-08T06:28:19;101972.69;;;10.75;100.00
7052;BME280;3567;52.444;13.556;2023-10-08T06:30:50;101965.75;;;10.87;100.00
7052;BME280;3567;52.444;13.556;2023-10-08T06:33:19;101959.38;;;11.01;100.00
7052;BME280;3567;52.444;13.556;2023-10-08T06:35:45;101965.19;;;11.12;100.00
7052;BME280;3567;52.444;13.556;2023-10-08T06:38:29;101969.94;;;11.16;100.00
7052;BME280;3567;52.444;13.556;2023-10-08T06:40:57;101984.75;;;11.06;100.00
7052;BME280;3567;52.444;13.556;2023-10-08T06:43:26;101985.38;;;11.01;100.00
7052;BME280;3567;52.444;13.556;2023-10-08T06:45:52;101989.09;;;11.07;100.00
7052;BME280;3567;52.444;13.556;2023-10-08T06:48:19;101993.22;;;11.02;100.00
7052;BME280;3567;52.444;13.556;2023-10-08T06:50:46;101990.28;;;10.91;100.00
7052;BME280;3567;52.444;13.556;2023-10-08T06:53:13;101992.69;;;10.79;100.00
7052;BME280;3567;52.444;13.556;2023-10-08T06:55:44;102005.03;;;10.73;100.00
7052;BME280;3567;52.444;13.556;2023-10-08T06:58:17;102011.00;;;10.69;100.00
7052;BME280;3567;52.444;13.556;2023-10-08T07:01:01;102011.81;;;10.69;100.00
7052;BME280;3567;52.444;13.556;2023-10-08T07:03:30;102008.31;;;10.69;100.00
7052;BME280;3567;52.444;13.556;2023-10-08T07:05:57;102022.53;;;10.69;100.00
7052;BME280;3567;52.444;13.556;2023-10-08T07:08:31;102018.00;;;10.70;100.00
7052;BME280;3567;52.444;13.556;2023-10-08T07:10:59;102018.66;;;10.72;100.00
7052;BME280;3567;52.444;13.556;2023-10-08T07:13:26;102018.81;;;10.70;100.00
7052;BME280;3567;52.444;13.556;2023-10-08T07:15:54;102021.72;;;10.69;100.00
7052;BME280;3567;52.444;13.556;2023-10-08T07:18:21;102032.41;;;10.62;100.00
7052;BME280;3567;52.444;13.556;2023-10-08T07:20:54;102036.69;;;10.57;100.00
7052;BME280;3567;52.444;13.556;2023-10-08T07:23:21;102036.06;;;10.55;100.00
7052;BME280;3567;52.444;13.556;2023-10-08T07:25:57;102043.09;;;10.56;100.00
7052;BME280;3567;52.444;13.556;2023-10-08T07:28:44;102046.59;;;10.56;100.00
7052;BME280;3567;52.444;13.556;2023-10-08T07:31:14;102045.34;;;10.59;100.00
7052;BME280;3567;52.444;13.556;2023-10-08T07:33:41;102054.66;;;10.63;100.00
7052;BME280;3567;52.444;13.556;2023-10-08T07:36:10;102055.09;;;10.66;100.00
7052;BME280;3567;52.444;13.556;2023-10-08T07:38:42;102058.19;;;10.70;100.00
7052;BME280;3567;52.444;13.556;2023-10-08T07:41:11;102054.13;;;10.74;100.00
7052;BME280;3567;52.444;13.556;2023-10-08T07:43:48;102060.50;;;10.73;100.00
7052;BME280;3567;52.444;13.556;2023-10-08T07:46:27;102063.75;;;10.68;100.00
7052;BME280;3567;52.444;13.556;2023-10-08T07:48:56;102066.00;;;10.65;100.00
7052;BME280;3567;52.444;13.556;2023-10-08T07:51:23;102068.50;;;10.66;100.00
7052;BME280;3567;52.444;13.556;2023-10-08T07:53:53;102072.00;;;10.67;100.00
7052;BME280;3567;52.444;13.556;2023-10-08T07:56:24;102082.97;;;10.72;100.00
7052;BME280;3567;52.444;13.556;2023-10-08T07:58:50;102076.81;;;10.78;100.00
7052;BME280;3567;52.444;13.556;2023-10-08T08:01:16;102085.34;;;10.88;100.00
7052;BME280;3567;52.444;13.556;2023-10-08T08:03:42;102092.72;;;10.86;100.00
7052;BME280;3567;52.444;13.556;2023-10-08T08:06:09;102085.72;;;10.85;100.00
7052;BME280;3567;52.444;13.556;2023-10-08T08:08:38;102095.66;;;10.91;100.00
7052;BME280;3567;52.444;13.556;2023-10-08T08:11:05;102101.47;;;11.01;100.00
7052;BME280;3567;52.444;13.556;2023-10-08T08:13:34;102100.31;;;11.11;100.00
7052;BME280;3567;52.444;13.556;2023-10-08T08:15:59;102105.31;;;11.20;100.00
7052;BME280;3567;52.444;13.556;2023-10-08T08:21:13;102111.78;;;11.39;100.00
7052;BME280;3567;52.444;13.556;2023-10-08T08:23:45;102115.31;;;11.46;100.00
7052;BME280;3567;52.444;13.556;2023-10-08T08:26:17;102115.56;;;11.51;100.00
7052;BME280;3567;52.444;13.556;2023-10-08T08:29:00;102116.78;;;11.55;100.00
7052;BME280;3567;52.444;13.556;2023-10-08T08:31:30;102120.13;;;11.64;100.00
7052;BME280;3567;52.444;13.556;2023-10-08T08:34:01;102127.78;;;11.67;100.00
7052;BME280;3567;52.444;13.556;2023-10-08T08:36:29;102129.22;;;11.63;100.00
7052;BME280;3567;52.444;13.556;2023-10-08T08:38:55;102136.88;;;11.73;100.00
7052;BME280;3567;52.444;13.556;2023-10-08T08:41:21;102135.25;;;11.78;100.00
7052;BME280;3567;52.444;13.556;2023-10-08T08:43:54;102142.75;;;11.96;100.00
7052;BME280;3567;52.444;13.556;2023-10-08T08:46:41;102144.41;;;11.97;100.00
7052;BME280;3567;52.444;13.556;2023-10-08T08:49:08;102155.59;;;12.07;100.00
7052;BME280;3567;52.444;13.556;2023-10-08T08:51:37;102150.84;;;12.23;100.00
7052;BME280;3567;52.444;13.556;2023-10-08T08:54:04;102155.63;;;12.34;100.00
7052;BME280;3567;52.444;13.556;2023-10-08T08:56:33;102157.06;;;12.50;100.00
7052;BME280;3567;52.444;13.556;2023-10-08T08:59:00;102160.81;;;12.69;100.00
7052;BME280;3567;52.444;13.556;2023-10-08T09:01:27;102158.94;;;12.89;100.00
7052;BME280;3567;52.444;13.556;2023-10-08T09:04:07;102164.88;;;13.18;100.00
7052;BME280;3567;52.444;13.556;2023-10-08T09:06:36;102162.75;;;13.40;100.00
7052;BME280;3567;52.444;13.556;2023-10-08T09:09:06;102163.31;;;13.61;100.00
7052;BME280;3567;52.444;13.556;2023-10-08T09:11:52;102167.44;;;14.02;100.00
7052;BME280;3567;52.444;13.556;2023-10-08T09:14:22;102171.09;;;14.46;100.00
7052;BME280;3567;52.444;13.556;2023-10-08T09:16:48;102176.78;;;15.06;100.00
7052;BME280;3567;52.444;13.556;2023-10-08T09:19:15;102167.81;;;15.49;98.57
7052;BME280;3567;52.444;13.556;2023-10-08T09:24:30;102181.25;;;16.04;97.04
7052;BME280;3567;52.444;13.556;2023-10-08T09:26:55;102179.94;;;15.95;93.90
7052;BME280;3567;52.444;13.556;2023-10-08T09:29:24;102185.69;;;15.68;93.94
7052;BME280;3567;52.444;13.556;2023-10-08T09:32:00;102171.84;;;15.58;93.68
7052;BME280;3567;52.444;13.556;2023-10-08T09:34:29;102178.03;;;15.47;94.33
7052;BME280;3567;52.444;13.556;2023-10-08T09:36:56;102180.13;;;15.45;93.10
7052;BME280;3567;52.444;13.556;2023-10-08T09:39:22;102175.31;;;15.47;90.56
7052;BME280;3567;52.444;13.556;2023-10-08T09:41:54;102181.47;;;15.36;92.68
7052;BME280;3567;52.444;13.556;2023-10-08T09:44:21;102178.03;;;15.47;91.44
7052;BME280;3567;52.444;13.556;2023-10-08T09:47:13;102182.41;;;15.66;88.61
7052;BME280;3567;52.444;13.556;2023-10-08T09:49:46;102187.38;;;15.26;87.50
7052;BME280;3567;52.444;13.556;2023-10-08T09:52:16;102195.72;;;15.25;89.13
7052;BME280;3567;52.444;13.556;2023-10-08T09:54:49;102188.88;;;15.59;84.67
7052;BME280;3567;52.444;13.556;2023-10-08T09:57:17;102192.19;;;15.61;86.85
7052;BME280;3567;52.444;13.556;2023-10-08T09:59:45;102195.09;;;15.96;85.47
7052;BME280;3567;52.444;13.556;2023-10-08T10:02:11;102209.72;;;16.60;85.34
7052;BME280;3567;52.444;13.556;2023-10-08T10:04:43;102208.25;;;17.23;82.68
7052;BME280;3567;52.444;13.556;2023-10-08T10:07:10;102193.78;;;17.81;80.78
7052;BME280;3567;52.444;13.556;2023-10-08T10:09:38;102202.44;;;18.23;78.13
7052;BME280;3567;52.444;13.556;2023-10-08T10:12:10;102198.66;;;18.24;73.26
7052;BME280;3567;52.444;13.556;2023-10-08T10:14:45;102198.84;;;18.35;70.82
7052;BME280;3567;52.444;13.556;2023-10-08T10:17:14;102194.59;;;18.39;67.54
7052;BME280;3567;52.444;13.556;2023-10-08T10:19:41;102191.88;;;18.89;63.79
7052;BME280;3567;52.444;13.556;2023-10-08T10:22:13;102181.78;;;19.23;57.89
7052;BME280;3567;52.444;13.556;2023-10-08T10:24:40;102180.13;;;19.22;56.59
7052;BME280;3567;52.444;13.556;2023-10-08T10:27:14;102174.50;;;19.07;52.54
7052;BME280;3567;52.444;13.556;2023-10-08T10:29:43;102165.63;;;18.95;51.69
7052;BME280;3567;52.444;13.556;2023-10-08T10:32:12;102164.28;;;19.14;52.73
7052;BME280;3567;52.444;13.556;2023-10-08T10:34:41;102176.59;;;19.44;53.56
7052;BME280;3567;52.444;13.556;2023-10-08T10:37:07;102163.94;;;19.54;50.17
7052;BME280;3567;52.444;13.556;2023-10-08T10:39:51;102152.88;;;19.17;47.77
7052;BME280;3567;52.444;13.556;2023-10-08T10:42:18;102160.00;;;19.01;48.67
7052;BME280;3567;52.444;13.556;2023-10-08T10:44:47;102175.81;;;19.04;49.27
7052;BME280;3567;52.444;13.556;2023-10-08T10:47:15;102178.25;;;19.45;49.46
7052;BME280;3567;52.444;13.556;2023-10-08T10:49:41;102168.13;;;19.84;48.96
7052;BME280;3567;52.444;13.556;2023-10-08T10:55:06;102146.47;;;19.67;44.47
7052;BME280;3567;52.444;13.556;2023-10-08T10:57:44;102142.22;;;19.76;42.88
7052;BME280;3567;52.444;13.556;2023-10-08T11:00:19;102135.88;;;19.71;41.86
7052;BME280;3567;52.444;13.556;2023-10-08T11:02:57;102153.97;;;20.09;43.49
7052;BME280;3567;52.444;13.556;2023-10-08T11:05:28;102135.00;;;20.46;40.77
7052;BME280;3567;52.444;13.556;2023-10-08T11:07:58;102132.41;;;20.66;41.46
7052;BME280;3567;52.444;13.556;2023-10-08T11:10:38;102131.63;;;20.71;41.00
7052;BME280;3567;52.444;13.556;2023-10-08T11:13:05;102114.59;;;20.49;38.26
7052;BME280;3567;52.444;13.556;2023-10-08T11:15:39;102107.88;;;19.97;39.38
7052;BME280;3567;52.444;13.556;2023-10-08T11:18:13;102111.56;;;19.86;39.78
7052;BME280;3567;52.444;13.556;2023-10-08T11:20:40;102115.22;;;19.70;39.59
7052;BME280;3567;52.444;13.556;2023-10-08T11:23:06;102123.47;;;19.80;40.50
7052;BME280;3567;52.444;13.556;2023-10-08T11:25:57;102104.13;;;19.71;38.85
7052;BME280;3567;52.444;13.556;2023-10-08T11:28:40;102117.66;;;19.93;39.75
7052;BME280;3567;52.444;13.556;2023-10-08T11:31:12;102108.97;;;19.96;39.17
7052;BME280;3567;52.444;13.556;2023-10-08T11:33:42;102116.44;;;20.11;39.88
7052;BME280;3567;52.444;13.556;2023-10-08T11:36:09;102101.38;;;20.67;37.99
7052;BME280;3567;52.444;13.556;2023-10-08T11:38:46;102111.72;;;21.23;36.54
7052;BME280;3567;52.444;13.556;2023-10-08T11:41:16;102098.78;;;20.88;34.95
7052;BME280;3567;52.444;13.556;2023-10-08T11:43:48;102097.66;;;20.41;36.39
7052;BME280;3567;52.444;13.556;2023-10-08T11:46:20;102105.09;;;20.19;35.94
7052;BME280;3567;52.444;13.556;2023-10-08T11:48:45;102103.56;;;20.33;36.63
7052;BME280;3567;52.444;13.556;2023-10-08T11:51:12;102102.53;;;20.45;35.63
7052;BME280;3567;52.444;13.556;2023-10-08T11:53:42;102095.28;;;20.18;36.47
7052;BME280;3567;52.444;13.556;2023-10-08T11:56:10;102095.03;;;20.20;35.35
7052;BME280;3567;52.444;13.556;2023-10-08T11:58:39;102091.72;;;19.85;36.22
7052;BME280;3567;52.444;13.556;2023-10-08T12:01:05;102093.31;;;19.81;37.02
7052;BME280;3567;52.444;13.556;2023-10-08T12:03:31;102106.91;;;19.81;37.68
7052;BME280;3567;52.444;13.556;2023-10-08T12:05:57;102104.78;;;20.15;37.28
7052;BME280;3567;52.444;13.556;2023-10-08T12:08:26;102112.81;;;20.00;38.45
7052;BME280;3567;52.444;13.556;2023-10-08T12:10:54;102115.97;;;20.19;36.37
7052;BME280;3567;52.444;13.556;2023-10-08T12:13:20;102102.25;;;20.04;36.37
7052;BME280;3567;52.444;13.556;2023-10-08T12:15:54;102115.41;;;20.17;37.89
7052;BME280;3567;52.444;13.556;2023-10-08T12:18:33;102112.00;;;20.32;37.21
7052;BME280;3567;52.444;13.556;2023-10-08T12:21:05;102125.50;;;20.54;36.48
7052;BME280;3567;52.444;13.556;2023-10-08T12:23:36;102116.31;;;20.28;35.40
7052;BME280;3567;52.444;13.556;2023-10-08T12:26:03;102104.19;;;20.08;34.99
7052;BME280;3567;52.444;13.556;2023-10-08T12:28:28;102100.88;;;19.52;35.12
7052;BME280;3567;52.444;13.556;2023-10-08T12:30:54;102085.44;;;19.31;36.16
7052;BME280;3567;52.444;13.556;2023-10-08T12:33:24;102086.91;;;19.44;37.75
7052;BME280;3567;52.444;13.556;2023-10-08T12:35:51;102088.97;;;19.58;37.73
7052;BME280;3567;52.444;13.556;2023-10-08T12:38:21;102084.97;;;19.88;36.18
7052;BME280;3567;52.444;13.556;2023-10-08T12:40:51;102089.41;;;19.99;36.57
7052;BME280;3567;52.444;13.556;2023-10-08T12:43:23;102091.28;;;19.94;36.71
7052;BME280;3567;52.444;13.556;2023-10-08T12:45:52;102084.69;;;19.89;36.34
7052;BME280;3567;52.444;13.556;2023-10-08T12:48:22;102082.06;;;19.68;35.93
7052;BME280;3567;52.444;13.556;2023-10-08T12:50:50;102084.88;;;19.29;36.73
7052;BME280;3567;52.444;13.556;2023-10-08T12:53:21;102095.09;;;19.00;38.68
7052;BME280;3567;52.444;13.556;2023-10-08T12:55:53;102106.84;;;19.05;38.74
7052;BME280;3567;52.444;13.556;2023-10-08T12:58:20;102093.03;;;19.07;38.10
7052;BME280;3567;52.444;13.556;2023-10-08T13:00:48;102093.03;;;19.07;38.18
7052;BME280;3567;52.444;13.556;2023-10-08T13:03:22;102087.38;;;19.35;38.54
7052;BME280;3567;52.444;13.556;2023-10-08T13:05:49;102090.28;;;19.51;39.61
7052;BME280;3567;52.444;13.556;2023-10-08T13:08:19;102095.47;;;19.30;40.03
7052;BME280;3567;52.444;13.556;2023-10-08T13:10:45;102084.75;;;18.97;39.08
7052;BME280;3567;52.444;13.556;2023-10-08T13:13:11;102082.75;;;18.70;39.79
7052;BME280;3567;52.444;13.556;2023-10-08T13:15:38;102075.50;;;18.59;38.99
7052;BME280;3567;52.444;13.556;2023-10-08T13:18:03;102077.25;;;18.31;39.40
7052;BME280;3567;52.444;13.556;2023-10-08T13:20:29;102087.66;;;17.89;40.62